Time,TemperatureF,DewpointF,PressureIn,WindDirection,WindDirectionDegrees,WindSpeedMPH,WindSpeedGustMPH,Humidity,HourlyPrecipIn,Conditions,Clouds,dailyrainin,SoftwareType,DateUTC
2013-04-12 00:00:00,55.3,41.2,29.83,North,358,1.0,10.0,59,0.00,,,-99.99,Weather View 32 v60,2013-04-12 07:00:00,
2013-04-12 00:05:00,55.1,41.0,29.83,North,6,2.0,10.0,59,0.00,,,-99.99,Weather View 32 v60,2013-04-12 07:05:00,
2013-04-12 00:10:00,55.0,40.9,29.83,North,355,2.0,10.0,59,0.00,,,-99.99,Weather View 32 v60,2013-04-12 07:10:00,
2013-04-12 00:15:00,55.0,41.3,29.83,ENE,64,3.0,10.0,60,0.00,,,-99.99,Weather View 32 v60,2013-04-12 07:15:00,
2013-04-12 00:20:00,54.8,41.2,29.83,NW,319,2.0,10.0,60,0.00,,,-99.99,Weather View 32 v60,2013-04-12 07:20:00,
2013-04-12 00:25:00,54.6,41.0,29.83,NE,45,3.0,10.0,60,0.00,,,-99.99,Weather View 32 v60,2013-04-12 07:25:00,
2013-04-12 00:30:00,54.2,41.0,29.82,North,2,2.0,10.0,61,0.00,,,-99.99,Weather View 32 v60,2013-04-12 07:30:00,
2013-04-12 00:35:00,53.9,41.2,29.82,NNE,15,5.0,10.0,62,0.00,,,-99.99,Weather View 32 v60,2013-04-12 07:35:00,
2013-04-12 00:40:00,53.7,41.4,29.82,NNE,19,2.0,10.0,63,0.00,,,-99.99,Weather View 32 v60,2013-04-12 07:40:00,
2013-04-12 00:45:00,53.5,41.2,29.82,NNW,338,1.0,8.0,63,0.00,,,-99.99,Weather View 32 v60,2013-04-12 07:45:00,
2013-04-12 00:50:00,53.4,41.1,29.82,NNW,335,2.0,8.0,63,0.00,,,-99.99,Weather View 32 v60,2013-04-12 07:50:00,
2013-04-12 00:55:00,53.4,41.1,29.82,NNE,15,2.0,9.0,63,0.00,,,-99.99,Weather View 32 v60,2013-04-12 07:55:00,
2013-04-12 01:00:00,53.2,41.3,29.82,ENE,60,3.0,9.0,64,0.00,,,-99.99,Weather View 32 v60,2013-04-12 08:00:00,
2013-04-12 01:05:00,52.9,41.0,29.82,NE,46,5.0,9.0,64,0.00,,,-99.99,Weather View 32 v60,2013-04-12 08:05:00,
2013-04-12 01:10:00,52.7,41.2,29.82,North,5,2.0,9.0,65,0.00,,,-99.99,Weather View 32 v60,2013-04-12 08:10:00,
2013-04-12 01:15:00,52.3,41.3,29.82,NE,36,2.0,9.0,66,0.00,,,-99.99,Weather View 32 v60,2013-04-12 08:15:00,
2013-04-12 01:20:00,51.9,41.3,29.82,North,10,5.0,9.0,67,0.00,,,-99.99,Weather View 32 v60,2013-04-12 08:20:00,
2013-04-12 01:25:00,51.5,41.3,29.82,NE,35,2.0,9.0,68,0.00,,,-99.99,Weather View 32 v60,2013-04-12 08:25:00,
2013-04-12 01:30:00,51.2,41.0,29.81,North,3,3.0,9.0,68,0.00,,,-99.99,Weather View 32 v60,2013-04-12 08:30:00,
2013-04-12 01:35:00,51.1,41.3,29.81,NNE,20,4.0,9.0,69,0.00,,,-99.99,Weather View 32 v60,2013-04-12 08:35:00,
2013-04-12 01:40:00,51.1,41.3,29.81,NNE,15,1.0,9.0,69,0.00,,,-99.99,Weather View 32 v60,2013-04-12 08:40:00,
2013-04-12 01:45:00,51.2,41.4,29.81,ENE,72,1.0,9.0,69,0.00,,,-99.99,Weather View 32 v60,2013-04-12 08:45:00,
2013-04-12 01:55:00,51.1,41.3,29.81,ENE,60,0.0,9.0,69,0.00,,,-99.99,Weather View 32 v60,2013-04-12 08:55:00,
2013-04-12 02:05:00,51.1,41.6,29.81,SSW,208,2.0,9.0,70,0.00,,,-99.99,Weather View 32 v60,2013-04-12 09:05:00,
2013-04-12 02:25:00,50.1,41.8,29.81,SSE,161,1.0,6.0,73,0.00,,,-99.99,Weather View 32 v60,2013-04-12 09:25:00,
2013-04-12 02:35:00,49.7,41.7,29.81,SSW,213,2.0,6.0,74,0.00,,,-99.99,Weather View 32 v60,2013-04-12 09:35:00,
2013-04-12 02:50:00,48.8,42.2,29.81,SSE,168,1.0,4.0,78,0.00,,,-99.99,Weather View 32 v60,2013-04-12 09:50:00,
2013-04-12 02:53:00,51.1,41.3,29.81,NNE,16,4.0,9.0,69,0.00,,,-99.99,Weather View 32 v60,2013-04-12 09:53:00,
2013-04-12 03:03:00,51.1,41.3,29.81,NW,325,0.0,9.0,69,0.00,,,-99.99,Weather View 32 v60,2013-04-12 10:03:00,
2013-04-12 03:05:00,48.3,42.4,29.81,SSE,162,0.0,4.0,80,0.00,,,-99.99,Weather View 32 v60,2013-04-12 10:05:00,
2013-04-12 03:13:00,50.8,41.7,29.81,SW,236,1.0,6.0,71,0.00,,,-99.99,Weather View 32 v60,2013-04-12 10:13:00,
2013-04-12 03:18:00,50.5,41.8,29.81,SSE,161,1.0,6.0,72,0.00,,,-99.99,Weather View 32 v60,2013-04-12 10:18:00,
2013-04-12 03:23:00,50.3,41.6,29.81,SSE,165,2.0,6.0,72,0.00,,,-99.99,Weather View 32 v60,2013-04-12 10:23:00,
2013-04-12 03:30:00,47.1,41.9,29.81,NE,34,0.0,3.0,82,0.00,,,-99.99,Weather View 32 v60,2013-04-12 10:30:00,
2013-04-12 03:33:00,49.9,41.9,29.81,SW,215,2.0,6.0,74,0.00,,,-99.99,Weather View 32 v60,2013-04-12 10:33:00,
2013-04-12 03:35:00,47.0,41.8,29.82,NNE,28,0.0,3.0,82,0.00,,,-99.99,Weather View 32 v60,2013-04-12 10:35:00,
2013-04-12 03:40:00,47.0,42.1,29.82,NNE,25,0.0,2.0,83,0.00,,,-99.99,Weather View 32 v60,2013-04-12 10:40:00,
2013-04-12 03:43:00,49.4,41.8,29.81,South,176,2.0,6.0,75,0.00,,,-99.99,Weather View 32 v60,2013-04-12 10:43:00,
2013-04-12 03:48:00,49.1,42.2,29.81,South,176,2.0,6.0,77,0.00,,,-99.99,Weather View 32 v60,2013-04-12 10:48:00,
2013-04-12 03:50:00,47.0,42.1,29.82,NNE,29,0.0,2.0,83,0.00,,,-99.99,Weather View 32 v60,2013-04-12 10:50:00,
2013-04-12 03:58:00,48.6,42.0,29.81,SSE,162,2.0,4.0,78,0.00,,,-99.99,Weather View 32 v60,2013-04-12 10:58:00,
2013-04-12 04:00:00,47.3,42.4,29.82,SSE,149,1.0,2.0,83,0.00,,,-99.99,Weather View 32 v60,2013-04-12 11:00:00,
2013-04-12 04:03:00,48.5,42.3,29.81,South,179,0.0,4.0,79,0.00,,,-99.99,Weather View 32 v60,2013-04-12 11:03:00,
2013-04-12 04:05:00,47.3,42.4,29.82,SSE,154,1.0,2.0,83,0.00,,,-99.99,Weather View 32 v60,2013-04-12 11:05:00,
2013-04-12 04:08:00,48.3,42.4,29.81,SSE,162,0.0,4.0,80,0.00,,,-99.99,Weather View 32 v60,2013-04-12 11:08:00,
2013-04-12 04:13:00,48.0,42.1,29.81,SSE,162,0.0,3.0,80,0.00,,,-99.99,Weather View 32 v60,2013-04-12 11:13:00,
2013-04-12 04:18:00,47.6,41.7,29.81,SSE,162,0.0,3.0,80,0.00,,,-99.99,Weather View 32 v60,2013-04-12 11:18:00,
2013-04-12 04:20:00,47.1,42.2,29.82,SSE,159,0.0,2.0,83,0.00,,,-99.99,Weather View 32 v60,2013-04-12 11:20:00,
2013-04-12 04:23:00,47.4,41.9,29.81,NE,50,0.0,3.0,81,0.00,,,-99.99,Weather View 32 v60,2013-04-12 11:23:00,
2013-04-12 04:28:00,47.3,42.1,29.81,NE,49,0.0,3.0,82,0.00,,,-99.99,Weather View 32 v60,2013-04-12 11:28:00,
2013-04-12 04:30:00,46.9,42.3,29.82,SSE,157,1.0,2.0,84,0.00,,,-99.99,Weather View 32 v60,2013-04-12 11:30:00,
2013-04-12 04:35:00,46.8,42.2,29.82,SE,125,0.0,2.0,84,0.00,,,-99.99,Weather View 32 v60,2013-04-12 11:35:00,
2013-04-12 04:48:00,47.0,42.1,29.82,NNE,29,0.0,2.0,83,0.00,,,-99.99,Weather View 32 v60,2013-04-12 11:48:00,
2013-04-12 04:50:00,46.4,42.1,29.83,ESE,122,0.0,2.0,85,0.00,,,-99.99,Weather View 32 v60,2013-04-12 11:50:00,
2013-04-12 04:55:00,46.3,42.0,29.83,East,97,1.0,2.0,85,0.00,,,-99.99,Weather View 32 v60,2013-04-12 11:55:00,
2013-04-12 04:58:00,47.1,42.2,29.81,SSE,148,1.0,2.0,83,0.00,,,-99.99,Weather View 32 v60,2013-04-12 11:58:00,
2013-04-12 05:05:00,45.9,41.6,29.83,East,94,0.0,2.0,85,0.00,,,-99.99,Weather View 32 v60,2013-04-12 12:05:00,
2013-04-12 05:08:00,47.3,42.4,29.82,SSE,154,1.0,2.0,83,0.00,,,-99.99,Weather View 32 v60,2013-04-12 12:08:00,
2013-04-12 05:13:00,47.3,42.4,29.82,SSE,155,0.0,2.0,83,0.00,,,-99.99,Weather View 32 v60,2013-04-12 12:13:00,
2013-04-12 05:15:00,45.6,41.6,29.83,East,94,1.0,2.0,86,0.00,,,-99.99,Weather View 32 v60,2013-04-12 12:15:00,
2013-04-12 05:18:00,47.1,42.2,29.82,SSE,155,0.0,2.0,83,0.00,,,-99.99,Weather View 32 v60,2013-04-12 12:18:00,
2013-04-12 05:28:00,47.0,42.1,29.82,SSE,158,1.0,2.0,83,0.00,,,-99.99,Weather View 32 v60,2013-04-12 12:28:00,
2013-04-12 05:30:00,44.9,41.0,29.84,East,95,0.0,2.0,86,0.00,,,-99.99,Weather View 32 v60,2013-04-12 12:30:00,
2013-04-12 05:40:00,45.0,41.4,29.84,NNE,20,1.0,2.0,87,0.00,,,-99.99,Weather View 32 v60,2013-04-12 12:40:00,
2013-04-12 05:43:00,46.8,42.2,29.83,ESE,123,1.0,2.0,84,0.00,,,-99.99,Weather View 32 v60,2013-04-12 12:43:00,
2013-04-12 05:45:00,45.0,41.4,29.84,North,1,1.0,2.0,87,0.00,,,-99.99,Weather View 32 v60,2013-04-12 12:45:00,
2013-04-12 05:48:00,46.5,41.9,29.83,ESE,123,1.0,2.0,84,0.00,,,-99.99,Weather View 32 v60,2013-04-12 12:48:00,
2013-04-12 05:55:00,45.2,41.6,29.85,NNW,327,1.0,2.0,87,0.00,,,-99.99,Weather View 32 v60,2013-04-12 12:55:00,
2013-04-12 06:03:00,46.1,41.8,29.83,East,94,1.0,2.0,85,0.00,,,-99.99,Weather View 32 v60,2013-04-12 13:03:00,
2013-04-12 06:08:00,45.9,41.6,29.83,East,94,0.0,2.0,85,0.00,,,-99.99,Weather View 32 v60,2013-04-12 13:08:00,
2013-04-12 06:10:00,45.8,42.1,29.85,NW,308,2.0,2.0,87,0.00,,,-99.99,Weather View 32 v60,2013-04-12 13:10:00,
2013-04-12 06:13:00,45.7,41.7,29.83,East,95,0.0,2.0,86,0.00,,,-99.99,Weather View 32 v60,2013-04-12 13:13:00,
2013-04-12 06:20:00,46.9,43.2,29.85,NW,305,1.0,2.0,87,0.00,,,-99.99,Weather View 32 v60,2013-04-12 13:20:00,
2013-04-12 06:23:00,45.3,41.4,29.84,East,94,0.0,2.0,86,0.00,,,-99.99,Weather View 32 v60,2013-04-12 13:23:00,
2013-04-12 06:25:00,47.3,43.3,29.86,NW,315,1.0,2.0,86,0.00,,,-99.99,Weather View 32 v60,2013-04-12 13:25:00,
2013-04-12 06:28:00,45.1,41.2,29.84,East,93,0.0,2.0,86,0.00,,,-99.99,Weather View 32 v60,2013-04-12 13:28:00,
2013-04-12 06:38:00,44.9,41.3,29.84,NNE,31,0.0,2.0,87,0.00,,,-99.99,Weather View 32 v60,2013-04-12 13:38:00,
2013-04-12 06:40:00,48.2,43.6,29.86,NW,319,1.0,2.0,84,0.00,,,-99.99,Weather View 32 v60,2013-04-12 13:40:00,
2013-04-12 06:45:00,48.9,44.3,29.86,NW,322,1.0,2.0,84,0.00,,,-99.99,Weather View 32 v60,2013-04-12 13:45:00,
2013-04-12 06:50:00,50.0,45.0,29.86,NNW,333,1.0,3.0,83,0.00,,,-99.99,Weather View 32 v60,2013-04-12 13:50:00,
2013-04-12 06:53:00,45.1,41.5,29.85,NNW,327,1.0,2.0,87,0.00,,,-99.99,Weather View 32 v60,2013-04-12 13:53:00,
2013-04-12 07:03:00,45.4,41.8,29.85,NW,326,1.0,2.0,87,0.00,,,-99.99,Weather View 32 v60,2013-04-12 14:03:00,
2013-04-12 07:05:00,53.6,45.5,29.86,NNW,336,2.0,3.0,74,0.00,,,-99.99,Weather View 32 v60,2013-04-12 14:05:00,
2013-04-12 07:18:00,46.2,42.5,29.85,NW,312,1.0,2.0,87,0.00,,,-99.99,Weather View 32 v60,2013-04-12 14:18:00,
2013-04-12 07:33:00,47.5,43.2,29.86,NW,311,1.0,2.0,85,0.00,,,-99.99,Weather View 32 v60,2013-04-12 14:33:00,
2013-04-12 07:35:00,58.0,45.9,29.87,NNE,17,2.0,5.0,64,0.00,,,-99.99,Weather View 32 v60,2013-04-12 14:35:00,
2013-04-12 07:40:00,58.9,45.9,29.87,NE,50,3.0,5.0,62,0.00,,,-99.99,Weather View 32 v60,2013-04-12 14:40:00,
2013-04-12 07:45:00,59.5,46.0,29.86,North,352,1.0,5.0,61,0.00,,,-99.99,Weather View 32 v60,2013-04-12 14:45:00,
2013-04-12 07:55:00,59.5,45.6,29.86,NW,322,2.0,5.0,60,0.00,,,-99.99,Weather View 32 v60,2013-04-12 14:55:00,
2013-04-12 07:58:00,51.5,45.5,29.86,NW,312,2.0,3.0,80,0.00,,,-99.99,Weather View 32 v60,2013-04-12 14:58:00,
2013-04-12 08:03:00,52.7,45.7,29.86,NNE,14,1.0,3.0,77,0.00,,,-99.99,Weather View 32 v60,2013-04-12 15:03:00,
2013-04-12 08:10:00,61.1,45.2,29.86,NE,51,1.0,5.0,56,0.00,,,-99.99,Weather View 32 v60,2013-04-12 15:10:00,
2013-04-12 08:13:00,54.3,45.4,29.86,NNE,15,1.0,3.0,72,0.00,,,-99.99,Weather View 32 v60,2013-04-12 15:13:00,
2013-04-12 08:15:00,60.9,45.1,29.86,East,83,2.0,5.0,56,0.00,,,-99.99,Weather View 32 v60,2013-04-12 15:15:00,
2013-04-12 08:18:00,55.3,45.7,29.86,North,1,2.0,5.0,70,0.00,,,-99.99,Weather View 32 v60,2013-04-12 15:18:00,
2013-04-12 08:23:00,55.8,45.4,29.87,ENE,70,2.0,5.0,68,0.00,,,-99.99,Weather View 32 v60,2013-04-12 15:23:00,
2013-04-12 08:25:00,60.3,44.5,29.87,WSW,246,3.0,7.0,56,0.00,,,-99.99,Weather View 32 v60,2013-04-12 15:25:00,
2013-04-12 08:28:00,56.3,45.5,29.87,North,10,1.0,5.0,67,0.00,,,-99.99,Weather View 32 v60,2013-04-12 15:28:00,
2013-04-12 08:33:00,57.2,45.5,29.87,NNW,345,1.0,5.0,65,0.00,,,-99.99,Weather View 32 v60,2013-04-12 15:33:00,
2013-04-12 08:35:00,60.3,45.0,29.87,NW,313,1.0,7.0,57,0.00,,,-99.99,Weather View 32 v60,2013-04-12 15:35:00,
2013-04-12 08:40:00,61.3,45.4,29.87,WNW,294,4.0,7.0,56,0.00,,,-99.99,Weather View 32 v60,2013-04-12 15:40:00,
2013-04-12 08:53:00,59.3,45.4,29.86,WNW,298,1.0,5.0,60,0.00,,,-99.99,Weather View 32 v60,2013-04-12 15:53:00,
2013-04-12 08:55:00,62.6,45.7,29.87,North,356,1.0,7.0,54,0.00,,,-99.99,Weather View 32 v60,2013-04-12 15:55:00,
2013-04-12 09:00:00,63.3,45.8,29.87,NW,311,3.0,7.0,53,0.00,,,-99.99,Weather View 32 v60,2013-04-12 16:00:00,
2013-04-12 09:03:00,60.4,45.5,29.86,ENE,63,0.0,5.0,58,0.00,,,-99.99,Weather View 32 v60,2013-04-12 16:03:00,
2013-04-12 09:05:00,63.5,45.0,29.87,NW,306,6.0,7.0,51,0.00,,,-99.99,Weather View 32 v60,2013-04-12 16:05:00,
2013-04-12 09:10:00,62.9,45.5,29.87,NNW,335,3.0,7.0,53,0.00,,,-99.99,Weather View 32 v60,2013-04-12 16:10:00,
2013-04-12 09:15:00,61.1,45.2,29.86,NE,51,1.0,5.0,56,0.00,,,-99.99,Weather View 32 v60,2013-04-12 16:15:00,
2013-04-12 09:20:00,63.6,46.1,29.87,NW,325,1.0,8.0,53,0.00,,,-99.99,Weather View 32 v60,2013-04-12 16:20:00,
2013-04-12 09:23:00,59.9,44.6,29.87,WNW,296,2.0,7.0,57,0.00,,,-99.99,Weather View 32 v60,2013-04-12 16:23:00,
2013-04-12 09:33:00,59.9,44.6,29.87,West,272,3.0,7.0,57,0.00,,,-99.99,Weather View 32 v60,2013-04-12 16:33:00,
2013-04-12 09:35:00,66.5,47.2,29.86,WNW,291,2.0,8.0,50,0.00,,,-99.99,Weather View 32 v60,2013-04-12 16:35:00,
2013-04-12 09:48:00,62.3,46.4,29.87,West,263,5.0,7.0,56,0.00,,,-99.99,Weather View 32 v60,2013-04-12 16:48:00,
2013-04-12 09:53:00,62.0,45.1,29.87,WNW,291,3.0,7.0,54,0.00,,,-99.99,Weather View 32 v60,2013-04-12 16:53:00,
2013-04-12 10:18:00,63.2,45.7,29.87,WNW,300,5.0,8.0,53,0.00,,,-99.99,Weather View 32 v60,2013-04-12 17:18:00,
2013-04-12 10:28:00,64.9,46.3,29.86,NNW,347,2.0,8.0,51,0.00,,,-99.99,Weather View 32 v60,2013-04-12 17:28:00,
2013-04-12 10:43:00,66.5,46.7,29.86,WNW,301,3.0,8.0,49,0.00,,,-99.99,Weather View 32 v60,2013-04-12 17:43:00,
2013-04-12 10:53:00,66.1,45.2,29.86,WSW,238,2.0,8.0,47,0.00,,,-99.99,Weather View 32 v60,2013-04-12 17:53:00,
2013-04-12 10:58:00,66.3,45.4,29.86,NNW,330,3.0,8.0,47,0.00,,,-99.99,Weather View 32 v60,2013-04-12 17:58:00,
2013-04-12 11:08:00,68.3,46.7,29.86,NW,324,1.0,8.0,46,0.00,,,-99.99,Weather View 32 v60,2013-04-12 18:08:00,
2013-04-12 11:25:00,71.3,48.2,29.83,South,174,6.0,8.0,44,0.00,,,-99.99,Weather View 32 v60,2013-04-12 18:25:00,
2013-04-12 11:28:00,69.6,46.1,29.85,SSW,213,2.0,8.0,43,0.00,,,-99.99,Weather View 32 v60,2013-04-12 18:28:00,
2013-04-12 11:30:00,70.6,47.6,29.83,SE,129,4.0,8.0,44,0.00,,,-99.99,Weather View 32 v60,2013-04-12 18:30:00,
2013-04-12 11:35:00,71.0,47.9,29.82,SSE,149,4.0,8.0,44,0.00,,,-99.99,Weather View 32 v60,2013-04-12 18:35:00,
2013-04-12 11:40:00,71.7,47.9,29.82,ESE,119,5.0,8.0,43,0.00,,,-99.99,Weather View 32 v60,2013-04-12 18:40:00,
2013-04-12 11:45:00,71.6,47.9,29.82,SSE,155,8.0,9.0,43,0.00,,,-99.99,Weather View 32 v60,2013-04-12 18:45:00,
2013-04-12 11:50:00,72.1,47.7,29.82,SE,141,5.0,9.0,42,0.00,,,-99.99,Weather View 32 v60,2013-04-12 18:50:00,
2013-04-12 11:55:00,72.3,47.2,29.82,South,171,5.0,9.0,41,0.00,,,-99.99,Weather View 32 v60,2013-04-12 18:55:00,
2013-04-12 12:00:00,72.7,47.6,29.82,ESE,108,5.0,9.0,41,0.00,,,-99.99,Weather View 32 v60,2013-04-12 19:00:00,
2013-04-12 12:05:00,72.2,46.5,29.81,South,171,5.0,9.0,40,0.00,,,-99.99,Weather View 32 v60,2013-04-12 19:05:00,
2013-04-12 12:10:00,72.3,46.6,29.81,ESE,120,4.0,9.0,40,0.00,,,-99.99,Weather View 32 v60,2013-04-12 19:10:00,
2013-04-12 12:15:00,72.6,45.5,29.81,ESE,109,4.0,9.0,38,0.00,,,-99.99,Weather View 32 v60,2013-04-12 19:15:00,
2013-04-12 12:20:00,73.0,42.9,29.81,SSE,162,8.0,9.0,34,0.00,,,-99.99,Weather View 32 v60,2013-04-12 19:20:00,
2013-04-12 12:25:00,74.3,44.0,29.81,SE,137,4.0,9.0,34,0.00,,,-99.99,Weather View 32 v60,2013-04-12 19:25:00,
2013-04-12 12:30:00,75.2,44.8,29.80,SSW,199,4.0,9.0,34,0.00,,,-99.99,Weather View 32 v60,2013-04-12 19:30:00,
2013-04-12 12:35:00,75.0,44.6,29.80,West,278,3.0,9.0,34,0.00,,,-99.99,Weather View 32 v60,2013-04-12 19:35:00,
2013-04-12 12:40:00,75.0,43.9,29.80,SSE,149,6.0,9.0,33,0.00,,,-99.99,Weather View 32 v60,2013-04-12 19:40:00,
2013-04-12 12:45:00,75.4,43.4,29.80,SSE,154,6.0,10.0,32,0.00,,,-99.99,Weather View 32 v60,2013-04-12 19:45:00,
2013-04-12 12:50:00,75.1,44.7,29.80,SSE,152,6.0,11.0,34,0.00,,,-99.99,Weather View 32 v60,2013-04-12 19:50:00,
2013-04-12 12:55:00,75.3,46.4,29.80,SW,217,8.0,11.0,36,0.00,,,-99.99,Weather View 32 v60,2013-04-12 19:55:00,
2013-04-12 13:00:00,75.2,45.6,29.80,SSE,159,6.0,11.0,35,0.00,,,-99.99,Weather View 32 v60,2013-04-12 20:00:00,
2013-04-12 13:05:00,75.6,45.9,29.80,SSW,204,3.0,11.0,35,0.00,,,-99.99,Weather View 32 v60,2013-04-12 20:05:00,
2013-04-12 13:10:00,75.6,45.9,29.80,SSE,165,4.0,11.0,35,0.00,,,-99.99,Weather View 32 v60,2013-04-12 20:10:00,
2013-04-12 13:15:00,75.7,46.8,29.79,ESE,113,4.0,11.0,36,0.00,,,-99.99,Weather View 32 v60,2013-04-12 20:15:00,
2013-04-12 13:20:00,75.5,46.6,29.80,SSE,167,5.0,11.0,36,0.00,,,-99.99,Weather View 32 v60,2013-04-12 20:20:00,
2013-04-12 13:25:00,76.1,47.1,29.79,SE,130,8.0,11.0,36,0.00,,,-99.99,Weather View 32 v60,2013-04-12 20:25:00,
2013-04-12 13:30:00,75.7,48.9,29.79,SSW,210,6.0,11.0,39,0.00,,,-99.99,Weather View 32 v60,2013-04-12 20:30:00,
2013-04-12 13:35:00,75.2,49.8,29.79,East,94,9.0,13.0,41,0.00,,,-99.99,Weather View 32 v60,2013-04-12 20:35:00,
2013-04-12 13:40:00,74.9,50.2,29.79,SE,137,8.0,14.0,42,0.00,,,-99.99,Weather View 32 v60,2013-04-12 20:40:00,
2013-04-12 13:45:00,75.5,50.1,29.79,ESE,119,5.0,14.0,41,0.00,,,-99.99,Weather View 32 v60,2013-04-12 20:45:00,
2013-04-12 13:50:00,75.5,49.4,29.79,ESE,106,2.0,15.0,40,0.00,,,-99.99,Weather View 32 v60,2013-04-12 20:50:00,
2013-04-12 13:55:00,75.7,48.2,29.78,SSW,211,10.0,15.0,38,0.00,,,-99.99,Weather View 32 v60,2013-04-12 20:55:00,
2013-04-12 14:00:00,74.8,46.0,29.78,South,169,8.0,15.0,36,0.00,,,-99.99,Weather View 32 v60,2013-04-12 21:00:00,
2013-04-12 14:05:00,75.3,45.7,29.78,SE,146,4.0,15.0,35,0.00,,,-99.99,Weather View 32 v60,2013-04-12 21:05:00,
2013-04-12 14:10:00,75.5,45.1,29.78,South,179,13.0,15.0,34,0.00,,,-99.99,Weather View 32 v60,2013-04-12 21:10:00,
2013-04-12 14:15:00,75.7,45.3,29.78,ESE,116,6.0,15.0,34,0.00,,,-99.99,Weather View 32 v60,2013-04-12 21:15:00,
2013-04-12 14:20:00,76.1,45.6,29.77,ESE,116,3.0,15.0,34,0.00,,,-99.99,Weather View 32 v60,2013-04-12 21:20:00,
2013-04-12 14:25:00,75.5,45.9,29.78,SE,124,7.0,15.0,35,0.00,,,-99.99,Weather View 32 v60,2013-04-12 21:25:00,
2013-04-12 14:30:00,75.5,45.9,29.77,SE,130,5.0,15.0,35,0.00,,,-99.99,Weather View 32 v60,2013-04-12 21:30:00,
2013-04-12 14:35:00,75.4,45.8,29.77,East,98,10.0,15.0,35,0.00,,,-99.99,Weather View 32 v60,2013-04-12 21:35:00,
2013-04-12 14:40:00,75.5,46.6,29.77,SE,124,6.0,15.0,36,0.00,,,-99.99,Weather View 32 v60,2013-04-12 21:40:00,
2013-04-12 14:45:00,75.3,47.2,29.77,ESE,122,10.0,15.0,37,0.00,,,-99.99,Weather View 32 v60,2013-04-12 21:45:00,
2013-04-12 14:50:00,75.1,47.7,29.77,SE,128,8.0,15.0,38,0.00,,,-99.99,Weather View 32 v60,2013-04-12 21:50:00,
2013-04-12 14:55:00,75.4,48.0,29.77,SE,144,11.0,15.0,38,0.00,,,-99.99,Weather View 32 v60,2013-04-12 21:55:00,
2013-04-12 15:00:00,75.3,47.9,29.76,SE,131,6.0,14.0,38,0.00,,,-99.99,Weather View 32 v60,2013-04-12 22:00:00,
2013-04-12 15:05:00,75.2,47.8,29.76,SE,144,5.0,14.0,38,0.00,,,-99.99,Weather View 32 v60,2013-04-12 22:05:00,
2013-04-12 15:10:00,75.9,48.4,29.76,SE,139,10.0,14.0,38,0.00,,,-99.99,Weather View 32 v60,2013-04-12 22:10:00,
2013-04-12 15:15:00,75.5,48.0,29.76,SE,132,7.0,15.0,38,0.00,,,-99.99,Weather View 32 v60,2013-04-12 22:15:00,
2013-04-12 15:20:00,75.5,48.0,29.76,SSW,209,9.0,15.0,38,0.00,,,-99.99,Weather View 32 v60,2013-04-12 22:20:00,
2013-04-12 15:25:00,75.5,47.3,29.75,ENE,71,9.0,15.0,37,0.00,,,-99.99,Weather View 32 v60,2013-04-12 22:25:00,
2013-04-12 15:30:00,75.4,47.2,29.76,SSE,153,6.0,15.0,37,0.00,,,-99.99,Weather View 32 v60,2013-04-12 22:30:00,
2013-04-12 15:35:00,75.1,47.0,29.75,ESE,117,9.0,15.0,37,0.00,,,-99.99,Weather View 32 v60,2013-04-12 22:35:00,
2013-04-12 15:40:00,75.5,45.9,29.75,SE,139,8.0,16.0,35,0.00,,,-99.99,Weather View 32 v60,2013-04-12 22:40:00,
2013-04-12 15:45:00,75.0,46.2,29.75,SE,132,11.0,16.0,36,0.00,,,-99.99,Weather View 32 v60,2013-04-12 22:45:00,
2013-04-12 15:50:00,74.3,45.5,29.75,South,171,11.0,16.0,36,0.00,,,-99.99,Weather View 32 v60,2013-04-12 22:50:00,
2013-04-12 15:55:00,74.0,46.7,29.75,SSE,160,8.0,17.0,38,0.00,,,-99.99,Weather View 32 v60,2013-04-12 22:55:00,
2013-04-12 16:00:00,73.9,47.3,29.75,SE,126,9.0,17.0,39,0.00,,,-99.99,Weather View 32 v60,2013-04-12 23:00:00,
2013-04-12 16:05:00,73.6,47.7,29.75,SSE,155,6.0,17.0,40,0.00,,,-99.99,Weather View 32 v60,2013-04-12 23:05:00,
2013-04-12 16:10:00,73.0,45.8,29.75,SE,134,9.0,17.0,38,0.00,,,-99.99,Weather View 32 v60,2013-04-12 23:10:00,
2013-04-12 16:15:00,72.8,46.3,29.75,SE,144,8.0,17.0,39,0.00,,,-99.99,Weather View 32 v60,2013-04-12 23:15:00,
2013-04-12 16:20:00,72.8,47.7,29.75,ESE,116,8.0,17.0,41,0.00,,,-99.99,Weather View 32 v60,2013-04-12 23:20:00,
2013-04-12 16:25:00,72.9,47.8,29.75,SSE,158,10.0,17.0,41,0.00,,,-99.99,Weather View 32 v60,2013-04-12 23:25:00,
2013-04-12 16:30:00,72.0,46.9,29.75,SE,124,6.0,17.0,41,0.00,,,-99.99,Weather View 32 v60,2013-04-12 23:30:00,
2013-04-12 16:35:00,71.5,47.8,29.75,SE,126,8.0,18.0,43,0.00,,,-99.99,Weather View 32 v60,2013-04-12 23:35:00,
2013-04-12 16:40:00,71.5,47.8,29.75,ENE,72,7.0,18.0,43,0.00,,,-99.99,Weather View 32 v60,2013-04-12 23:40:00,
2013-04-12 16:45:00,71.0,47.3,29.75,East,94,7.0,18.0,43,0.00,,,-99.99,Weather View 32 v60,2013-04-12 23:45:00,
2013-04-12 16:50:00,70.7,46.4,29.75,SE,129,11.0,18.0,42,0.00,,,-99.99,Weather View 32 v60,2013-04-12 23:50:00,
2013-04-12 16:55:00,70.3,46.1,29.76,SE,137,13.0,18.0,42,0.00,,,-99.99,Weather View 32 v60,2013-04-12 23:55:00,
2013-04-12 17:00:00,70.0,45.8,29.76,ESE,113,7.0,18.0,42,0.00,,,-99.99,Weather View 32 v60,2013-04-13 00:00:00,
2013-04-12 17:05:00,69.7,45.5,29.76,SSE,165,8.0,18.0,42,0.00,,,-99.99,Weather View 32 v60,2013-04-13 00:05:00,
2013-04-12 17:10:00,69.1,45.6,29.76,SSE,155,7.0,18.0,43,0.00,,,-99.99,Weather View 32 v60,2013-04-13 00:10:00,
2013-04-12 17:15:00,68.8,45.9,29.76,SSE,148,5.0,18.0,44,0.00,,,-99.99,Weather View 32 v60,2013-04-13 00:15:00,
2013-04-12 17:20:00,68.6,45.8,29.76,SSE,151,5.0,18.0,44,0.00,,,-99.99,Weather View 32 v60,2013-04-13 00:20:00,
2013-04-12 17:25:00,68.4,46.2,29.76,SSE,168,6.0,18.0,45,0.00,,,-99.99,Weather View 32 v60,2013-04-13 00:25:00,
2013-04-12 17:30:00,68.4,47.3,29.76,SSE,168,5.0,18.0,47,0.00,,,-99.99,Weather View 32 v60,2013-04-13 00:30:00,
2013-04-12 17:35:00,68.0,47.0,29.76,South,171,10.0,14.0,47,0.00,,,-99.99,Weather View 32 v60,2013-04-13 00:35:00,
2013-04-12 17:40:00,67.0,46.6,29.76,SSE,161,6.0,14.0,48,0.00,,,-99.99,Weather View 32 v60,2013-04-13 00:40:00,
2013-04-12 17:45:00,66.2,47.0,29.76,SE,141,6.0,14.0,50,0.00,,,-99.99,Weather View 32 v60,2013-04-13 00:45:00,
2013-04-12 17:50:00,65.9,46.2,29.76,South,173,6.0,14.0,49,0.00,,,-99.99,Weather View 32 v60,2013-04-13 00:50:00,
2013-04-12 17:55:00,65.7,46.5,29.76,SSE,153,4.0,14.0,50,0.00,,,-99.99,Weather View 32 v60,2013-04-13 00:55:00,
2013-04-12 18:00:00,65.1,46.0,29.76,ESE,118,5.0,14.0,50,0.00,,,-99.99,Weather View 32 v60,2013-04-13 01:00:00,
2013-04-12 18:05:00,64.5,45.4,29.76,ESE,105,5.0,14.0,50,0.00,,,-99.99,Weather View 32 v60,2013-04-13 01:05:00,
2013-04-12 18:10:00,64.1,45.6,29.76,SE,144,6.0,14.0,51,0.00,,,-99.99,Weather View 32 v60,2013-04-13 01:10:00,
2013-04-12 18:15:00,63.6,45.6,29.76,South,176,7.0,13.0,52,0.00,,,-99.99,Weather View 32 v60,2013-04-13 01:15:00,
2013-04-12 18:20:00,62.8,45.4,29.76,ESE,116,8.0,11.0,53,0.00,,,-99.99,Weather View 32 v60,2013-04-13 01:20:00,
2013-04-12 18:25:00,62.3,44.9,29.76,SSE,149,7.0,11.0,53,0.00,,,-99.99,Weather View 32 v60,2013-04-13 01:25:00,
2013-04-12 18:30:00,61.8,45.4,29.76,SSE,148,5.0,11.0,55,0.00,,,-99.99,Weather View 32 v60,2013-04-13 01:30:00,
2013-04-12 18:35:00,61.5,46.1,29.77,SE,133,5.0,11.0,57,0.00,,,-99.99,Weather View 32 v60,2013-04-13 01:35:00,
2013-04-12 18:40:00,61.2,45.3,29.77,SE,129,7.0,11.0,56,0.00,,,-99.99,Weather View 32 v60,2013-04-13 01:40:00,
2013-04-12 18:45:00,60.7,45.3,29.77,SE,141,3.0,10.0,57,0.00,,,-99.99,Weather View 32 v60,2013-04-13 01:45:00,
2013-04-12 18:50:00,60.2,45.3,29.77,SSE,165,3.0,10.0,58,0.00,,,-99.99,Weather View 32 v60,2013-04-13 01:50:00,
2013-04-12 18:55:00,59.9,45.5,29.77,SW,219,1.0,10.0,59,0.00,,,-99.99,Weather View 32 v60,2013-04-13 01:55:00,
2013-04-12 19:00:00,59.5,45.6,29.78,SW,223,2.0,10.0,60,0.00,,,-99.99,Weather View 32 v60,2013-04-13 02:00:00,
2013-04-12 19:05:00,59.0,45.5,29.77,SE,132,3.0,10.0,61,0.00,,,-99.99,Weather View 32 v60,2013-04-13 02:05:00,
2013-04-12 19:15:00,58.4,45.4,29.77,SSE,164,6.0,10.0,62,0.00,,,-99.99,Weather View 32 v60,2013-04-13 02:15:00,
2013-04-12 19:20:00,58.2,45.2,29.78,SE,131,3.0,10.0,62,0.00,,,-99.99,Weather View 32 v60,2013-04-13 02:20:00,
2013-04-12 19:25:00,58.0,45.4,29.78,ESE,123,4.0,10.0,63,0.00,,,-99.99,Weather View 32 v60,2013-04-13 02:25:00,
2013-04-12 19:30:00,57.6,45.1,29.78,SSW,205,2.0,8.0,63,0.00,,,-99.99,Weather View 32 v60,2013-04-13 02:30:00,
2013-04-12 19:35:00,57.5,45.4,29.78,SW,223,2.0,8.0,64,0.00,,,-99.99,Weather View 32 v60,2013-04-13 02:35:00,
2013-04-12 20:00:00,56.8,45.5,29.79,SE,136,1.0,8.0,66,0.00,,,-99.99,Weather View 32 v60,2013-04-13 03:00:00,
2013-04-12 20:05:00,56.7,45.4,29.79,WSW,238,1.0,8.0,66,0.00,,,-99.99,Weather View 32 v60,2013-04-13 03:05:00,
2013-04-12 20:10:00,56.5,45.3,29.79,SE,141,5.0,8.0,66,0.00,,,-99.99,Weather View 32 v60,2013-04-13 03:10:00,
2013-04-12 20:13:00,58.8,45.8,29.78,SW,227,3.0,10.0,62,0.00,,,-99.99,Weather View 32 v60,2013-04-13 03:13:00,
2013-04-12 20:15:00,56.3,45.5,29.80,SW,225,1.0,8.0,67,0.00,,,-99.99,Weather View 32 v60,2013-04-13 03:15:00,
2013-04-12 20:18:00,58.4,45.4,29.77,SSE,164,6.0,10.0,62,0.00,,,-99.99,Weather View 32 v60,2013-04-13 03:18:00,
2013-04-12 20:20:00,56.2,45.4,29.80,SSE,159,1.0,6.0,67,0.00,,,-99.99,Weather View 32 v60,2013-04-13 03:20:00,
2013-04-12 20:25:00,56.1,45.3,29.80,South,176,2.0,6.0,67,0.00,,,-99.99,Weather View 32 v60,2013-04-13 03:25:00,
2013-04-12 20:30:00,55.9,45.5,29.80,South,173,2.0,6.0,68,0.00,,,-99.99,Weather View 32 v60,2013-04-13 03:30:00,
2013-04-12 20:35:00,55.8,45.4,29.80,West,260,3.0,6.0,68,0.00,,,-99.99,Weather View 32 v60,2013-04-13 03:35:00,
2013-04-12 20:40:00,55.5,45.5,29.81,SSW,205,2.0,6.0,69,0.00,,,-99.99,Weather View 32 v60,2013-04-13 03:40:00,
2013-04-12 20:43:00,57.2,45.5,29.78,South,175,3.0,8.0,65,0.00,,,-99.99,Weather View 32 v60,2013-04-13 03:43:00,
2013-04-12 20:45:00,55.2,45.6,29.81,South,174,2.0,6.0,70,0.00,,,-99.99,Weather View 32 v60,2013-04-13 03:45:00,
2013-04-12 20:48:00,57.1,45.4,29.79,South,169,3.0,8.0,65,0.00,,,-99.99,Weather View 32 v60,2013-04-13 03:48:00,
2013-04-12 20:50:00,55.1,45.8,29.81,SSE,157,3.0,6.0,71,0.00,,,-99.99,Weather View 32 v60,2013-04-13 03:50:00,
2013-04-12 20:55:00,55.0,45.8,29.81,SSE,167,2.0,6.0,71,0.00,,,-99.99,Weather View 32 v60,2013-04-13 03:55:00,
2013-04-12 20:58:00,56.9,45.6,29.79,ESE,109,1.0,8.0,66,0.00,,,-99.99,Weather View 32 v60,2013-04-13 03:58:00,
2013-04-12 21:00:00,54.8,45.6,29.81,ESE,122,2.0,6.0,71,0.00,,,-99.99,Weather View 32 v60,2013-04-13 04:00:00,
2013-04-12 21:05:00,54.7,45.8,29.81,ESE,123,3.0,6.0,72,0.00,,,-99.99,Weather View 32 v60,2013-04-13 04:05:00,
2013-04-12 21:10:00,54.5,45.6,29.81,ESE,116,2.0,6.0,72,0.00,,,-99.99,Weather View 32 v60,2013-04-13 04:10:00,
2013-04-12 21:15:00,54.3,45.4,29.81,ESE,120,1.0,5.0,72,0.00,,,-99.99,Weather View 32 v60,2013-04-13 04:15:00,
2013-04-12 21:20:00,54.2,45.4,29.81,ESE,109,2.0,5.0,72,0.00,,,-99.99,Weather View 32 v60,2013-04-13 04:20:00,
2013-04-12 21:25:00,54.1,45.6,29.82,SE,142,2.0,5.0,73,0.00,,,-99.99,Weather View 32 v60,2013-04-13 04:25:00,
2013-04-12 21:30:00,53.9,45.1,29.82,ENE,71,0.0,5.0,72,0.00,,,-99.99,Weather View 32 v60,2013-04-13 04:30:00,
2013-04-12 21:35:00,53.7,45.6,29.82,SSE,160,2.0,5.0,74,0.00,,,-99.99,Weather View 32 v60,2013-04-13 04:35:00,
2013-04-12 21:40:00,53.8,45.3,29.82,SE,140,2.0,4.0,73,0.00,,,-99.99,Weather View 32 v60,2013-04-13 04:40:00,
2013-04-12 21:45:00,53.8,45.3,29.82,SSE,152,3.0,4.0,73,0.00,,,-99.99,Weather View 32 v60,2013-04-13 04:45:00,
2013-04-12 21:50:00,53.7,45.2,29.82,SE,131,1.0,4.0,73,0.00,,,-99.99,Weather View 32 v60,2013-04-13 04:50:00,
2013-04-12 21:55:00,53.6,45.1,29.82,NNW,327,3.0,5.0,73,0.00,,,-99.99,Weather View 32 v60,2013-04-13 04:55:00,
2013-04-12 22:00:00,53.5,45.0,29.82,ESE,114,1.0,5.0,73,0.00,,,-99.99,Weather View 32 v60,2013-04-13 05:00:00,
2013-04-12 22:05:00,53.3,44.8,29.82,SE,124,2.0,5.0,73,0.00,,,-99.99,Weather View 32 v60,2013-04-13 05:05:00,
2013-04-12 22:10:00,53.1,44.7,29.82,SE,146,5.0,6.0,73,0.00,,,-99.99,Weather View 32 v60,2013-04-13 05:10:00,
2013-04-12 22:15:00,53.0,44.9,29.82,East,93,1.0,6.0,74,0.00,,,-99.99,Weather View 32 v60,2013-04-13 05:15:00,
2013-04-12 22:20:00,52.8,44.7,29.82,ESE,110,2.0,6.0,74,0.00,,,-99.99,Weather View 32 v60,2013-04-13 05:20:00,
2013-04-12 22:25:00,52.7,45.0,29.82,SE,141,1.0,6.0,75,0.00,,,-99.99,Weather View 32 v60,2013-04-13 05:25:00,
2013-04-12 22:30:00,52.6,44.5,29.81,East,86,2.0,6.0,74,0.00,,,-99.99,Weather View 32 v60,2013-04-13 05:30:00,
2013-04-12 22:35:00,52.3,44.6,29.81,ESE,107,1.0,6.0,75,0.00,,,-99.99,Weather View 32 v60,2013-04-13 05:35:00,
2013-04-12 22:45:00,51.7,44.7,29.82,ENE,71,2.0,6.0,77,0.00,,,-99.99,Weather View 32 v60,2013-04-13 05:45:00,
2013-04-12 22:50:00,51.4,44.8,29.82,East,93,1.0,6.0,78,0.00,,,-99.99,Weather View 32 v60,2013-04-13 05:50:00,
2013-04-12 22:55:00,51.3,44.7,29.82,ESE,106,1.0,6.0,78,0.00,,,-99.99,Weather View 32 v60,2013-04-13 05:55:00,
2013-04-12 23:00:00,51.0,44.7,29.82,ESE,102,1.0,6.0,79,0.00,,,-99.99,Weather View 32 v60,2013-04-13 06:00:00,
2013-04-12 23:05:00,50.8,44.5,29.82,ENE,78,1.0,6.0,79,0.00,,,-99.99,Weather View 32 v60,2013-04-13 06:05:00,
2013-04-12 23:10:00,50.7,44.7,29.82,NNE,32,1.0,5.0,80,0.00,,,-99.99,Weather View 32 v60,2013-04-13 06:10:00,
2013-04-12 23:15:00,50.7,44.7,29.82,East,89,2.0,4.0,80,0.00,,,-99.99,Weather View 32 v60,2013-04-13 06:15:00,
2013-04-12 23:20:00,50.5,44.5,29.82,East,83,2.0,4.0,80,0.00,,,-99.99,Weather View 32 v60,2013-04-13 06:20:00,
2013-04-12 23:30:00,50.0,44.4,29.82,ENE,75,2.0,4.0,81,0.00,,,-99.99,Weather View 32 v60,2013-04-13 06:30:00,
2013-04-12 23:35:00,49.9,44.3,29.82,WNW,296,4.0,4.0,81,0.00,,,-99.99,Weather View 32 v60,2013-04-13 06:35:00,
2013-04-12 23:40:00,49.8,44.2,29.82,ENE,74,2.0,4.0,81,0.00,,,-99.99,Weather View 32 v60,2013-04-13 06:40:00,
2013-04-12 23:45:00,49.8,44.5,29.82,SE,138,0.0,4.0,82,0.00,,,-99.99,Weather View 32 v60,2013-04-13 06:45:00,
2013-04-12 23:50:00,49.8,44.5,29.82,NE,42,0.0,4.0,82,0.00,,,-99.99,Weather View 32 v60,2013-04-13 06:50:00,
2013-04-12 23:55:00,49.8,44.5,29.81,ESE,110,1.0,4.0,82,0.00,,,-99.99,Weather View 32 v60,2013-04-13 06:55:00,